sensor_id;sensor_type;location;lat;lon;timestamp;P1;durP1;ratioP1;P2;durP2;ratioP2
27412;SDS011;14871;52.702;5.230;2024-02-28T00:01:50;7.10;;;3.17;;
27412;SDS011;14871;52.702;5.230;2024-02-28T00:04:16;4.45;;;3.10;;
27412;SDS011;14871;52.702;5.230;2024-02-28T00:06:44;5.10;;;3.30;;
27412;SDS011;14871;52.702;5.230;2024-02-28T00:09:11;5.95;;;3.13;;
27412;SDS011;14871;52.702;5.230;2024-02-28T00:11:42;8.38;;;3.70;;
27412;SDS011;14871;52.702;5.230;2024-02-28T00:14:14;6.78;;;4.00;;
27412;SDS011;14871;52.702;5.230;2024-02-28T00:16:40;6.57;;;3.65;;
27412;SDS011;14871;52.702;5.230;2024-02-28T00:19:06;4.53;;;3.50;;
27412;SDS011;14871;52.702;5.230;2024-02-28T00:21:32;8.55;;;3.90;;
27412;SDS011;14871;52.702;5.230;2024-02-28T00:23:58;7.90;;;3.90;;
27412;SDS011;14871;52.702;5.230;2024-02-28T00:26:25;6.50;;;3.50;;
27412;SDS011;14871;52.702;5.230;2024-02-28T00:28:50;6.38;;;3.20;;
27412;SDS011;14871;52.702;5.230;2024-02-28T00:31:16;8.02;;;3.35;;
27412;SDS011;14871;52.702;5.230;2024-02-28T00:33:41;9.07;;;3.95;;
27412;SDS011;14871;52.702;5.230;2024-02-28T00:36:07;7.35;;;3.03;;
27412;SDS011;14871;52.702;5.230;2024-02-28T00:38:33;10.57;;;4.25;;
27412;SDS011;14871;52.702;5.230;2024-02-28T00:40:59;5.28;;;3.58;;
27412;SDS011;14871;52.702;5.230;2024-02-28T00:43:24;6.78;;;4.00;;
27412;SDS011;14871;52.702;5.230;2024-02-28T00:45:50;6.35;;;4.47;;
27412;SDS011;14871;52.702;5.230;2024-02-28T00:48:16;6.38;;;4.40;;
27412;SDS011;14871;52.702;5.230;2024-02-28T00:50:41;6.18;;;4.47;;
27412;SDS011;14871;52.702;5.230;2024-02-28T00:53:07;7.82;;;4.25;;
27412;SDS011;14871;52.702;5.230;2024-02-28T00:55:33;8.50;;;4.82;;
27412;SDS011;14871;52.702;5.230;2024-02-28T00:57:59;7.55;;;4.65;;
27412;SDS011;14871;52.702;5.230;2024-02-28T01:00:24;7.88;;;5.05;;
27412;SDS011;14871;52.702;5.230;2024-02-28T01:02:50;9.02;;;4.60;;
27412;SDS011;14871;52.702;5.230;2024-02-28T01:05:15;10.05;;;4.30;;
27412;SDS011;14871;52.702;5.230;2024-02-28T01:07:41;9.05;;;4.60;;
27412;SDS011;14871;52.702;5.230;2024-02-28T01:10:07;7.82;;;5.05;;
27412;SDS011;14871;52.702;5.230;2024-02-28T01:12:33;7.40;;;4.97;;
27412;SDS011;14871;52.702;5.230;2024-02-28T01:14:59;9.68;;;5.00;;
27412;SDS011;14871;52.702;5.230;2024-02-28T01:17:25;6.90;;;4.72;;
27412;SDS011;14871;52.702;5.230;2024-02-28T01:19:50;7.20;;;4.90;;
27412;SDS011;14871;52.702;5.230;2024-02-28T01:22:16;7.13;;;5.00;;
27412;SDS011;14871;52.702;5.230;2024-02-28T01:24:41;8.27;;;4.93;;
27412;SDS011;14871;52.702;5.230;2024-02-28T01:27:09;6.18;;;5.10;;
27412;SDS011;14871;52.702;5.230;2024-02-28T01:29:35;7.40;;;5.63;;
27412;SDS011;14871;52.702;5.230;2024-02-28T01:32:00;8.85;;;5.07;;
27412;SDS011;14871;52.702;5.230;2024-02-28T01:34:26;8.18;;;6.00;;
27412;SDS011;14871;52.702;5.230;2024-02-28T01:36:51;11.88;;;5.85;;
27412;SDS011;14871;52.702;5.230;2024-02-28T01:39:17;7.40;;;5.20;;
27412;SDS011;14871;52.702;5.230;2024-02-28T01:41:50;9.10;;;5.45;;
27412;SDS011;14871;52.702;5.230;2024-02-28T01:44:19;9.90;;;5.78;;
27412;SDS011;14871;52.702;5.230;2024-02-28T01:46:45;8.32;;;5.78;;
27412;SDS011;14871;52.702;5.230;2024-02-28T01:49:11;9.27;;;7.75;;
27412;SDS011;14871;52.702;5.230;2024-02-28T01:51:37;9.32;;;5.78;;
27412;SDS011;14871;52.702;5.230;2024-02-28T01:54:03;10.07;;;6.78;;
27412;SDS011;14871;52.702;5.230;2024-02-28T01:56:29;11.05;;;6.10;;
27412;SDS011;14871;52.702;5.230;2024-02-28T01:58:55;11.80;;;6.68;;
27412;SDS011;14871;52.702;5.230;2024-02-28T02:01:22;9.07;;;6.55;;
27412;SDS011;14871;52.702;5.230;2024-02-28T02:03:48;11.98;;;7.85;;
27412;SDS011;14871;52.702;5.230;2024-02-28T02:06:13;13.43;;;8.57;;
27412;SDS011;14871;52.702;5.230;2024-02-28T02:08:39;12.38;;;8.13;;
27412;SDS011;14871;52.702;5.230;2024-02-28T02:11:05;15.45;;;9.70;;
27412;SDS011;14871;52.702;5.230;2024-02-28T02:13:31;15.50;;;9.07;;
27412;SDS011;14871;52.702;5.230;2024-02-28T02:15:57;10.52;;;8.40;;
27412;SDS011;14871;52.702;5.230;2024-02-28T02:18:23;11.90;;;8.30;;
27412;SDS011;14871;52.702;5.230;2024-02-28T02:20:50;14.05;;;9.40;;
27412;SDS011;14871;52.702;5.230;2024-02-28T02:23:19;15.02;;;9.27;;
27412;SDS011;14871;52.702;5.230;2024-02-28T02:25:45;11.95;;;9.38;;
27412;SDS011;14871;52.702;5.230;2024-02-28T02:28:12;15.85;;;8.88;;
27412;SDS011;14871;52.702;5.230;2024-02-28T02:30:38;15.07;;;9.50;;
27412;SDS011;14871;52.702;5.230;2024-02-28T02:33:04;19.00;;;10.10;;
27412;SDS011;14871;52.702;5.230;2024-02-28T02:35:30;16.10;;;10.57;;
27412;SDS011;14871;52.702;5.230;2024-02-28T02:37:56;14.90;;;10.20;;
27412;SDS011;14871;52.702;5.230;2024-02-28T02:40:22;17.70;;;10.48;;
27412;SDS011;14871;52.702;5.230;2024-02-28T02:42:48;15.20;;;9.93;;
27412;SDS011;14871;52.702;5.230;2024-02-28T02:45:13;17.67;;;11.52;;
27412;SDS011;14871;52.702;5.230;2024-02-28T02:47:39;15.98;;;11.13;;
27412;SDS011;14871;52.702;5.230;2024-02-28T02:50:05;15.93;;;10.93;;
27412;SDS011;14871;52.702;5.230;2024-02-28T02:52:31;18.98;;;12.18;;
27412;SDS011;14871;52.702;5.230;2024-02-28T02:54:57;17.73;;;12.30;;
27412;SDS011;14871;52.702;5.230;2024-02-28T02:57:23;17.17;;;11.35;;
27412;SDS011;14871;52.702;5.230;2024-02-28T02:59:48;20.58;;;13.38;;
27412;SDS011;14871;52.702;5.230;2024-02-28T03:02:14;18.02;;;12.65;;
27412;SDS011;14871;52.702;5.230;2024-02-28T03:04:39;16.80;;;12.20;;
27412;SDS011;14871;52.702;5.230;2024-02-28T03:07:05;14.65;;;10.93;;
27412;SDS011;14871;52.702;5.230;2024-02-28T03:09:31;18.20;;;13.35;;
27412;SDS011;14871;52.702;5.230;2024-02-28T03:11:56;20.30;;;13.00;;
27412;SDS011;14871;52.702;5.230;2024-02-28T03:14:22;21.85;;;14.63;;
27412;SDS011;14871;52.702;5.230;2024-02-28T03:16:50;21.67;;;13.82;;
27412;SDS011;14871;52.702;5.230;2024-02-28T03:19:16;20.80;;;14.50;;
27412;SDS011;14871;52.702;5.230;2024-02-28T03:21:41;20.13;;;15.15;;
27412;SDS011;14871;52.702;5.230;2024-02-28T03:24:07;21.08;;;16.42;;
27412;SDS011;14871;52.702;5.230;2024-02-28T03:26:33;20.73;;;16.40;;
27412;SDS011;14871;52.702;5.230;2024-02-28T03:28:58;27.27;;;16.95;;
27412;SDS011;14871;52.702;5.230;2024-02-28T03:31:25;24.40;;;18.63;;
27412;SDS011;14871;52.702;5.230;2024-02-28T03:33:51;26.63;;;18.27;;
27412;SDS011;14871;52.702;5.230;2024-02-28T03:36:17;25.30;;;18.98;;
27412;SDS011;14871;52.702;5.230;2024-02-28T03:38:42;25.67;;;20.15;;
27412;SDS011;14871;52.702;5.230;2024-02-28T03:41:08;30.30;;;21.10;;
27412;SDS011;14871;52.702;5.230;2024-02-28T03:43:34;26.95;;;19.25;;
27412;SDS011;14871;52.702;5.230;2024-02-28T03:46:00;27.83;;;19.50;;
27412;SDS011;14871;52.702;5.230;2024-02-28T03:48:25;28.10;;;19.05;;
27412;SDS011;14871;52.702;5.230;2024-02-28T03:50:51;25.73;;;17.83;;
27412;SDS011;14871;52.702;5.230;2024-02-28T03:53:17;21.80;;;15.88;;
27412;SDS011;14871;52.702;5.230;2024-02-28T03:55:42;25.33;;;16.30;;
27412;SDS011;14871;52.702;5.230;2024-02-28T03:58:11;22.05;;;16.15;;
27412;SDS011;14871;52.702;5.230;2024-02-28T04:00:37;20.17;;;15.98;;
27412;SDS011;14871;52.702;5.230;2024-02-28T04:03:04;23.23;;;15.40;;
27412;SDS011;14871;52.702;5.230;2024-02-28T04:05:30;21.23;;;14.73;;
27412;SDS011;14871;52.702;5.230;2024-02-28T04:07:55;22.60;;;14.77;;
27412;SDS011;14871;52.702;5.230;2024-02-28T04:10:21;22.52;;;13.90;;
27412;SDS011;14871;52.702;5.230;2024-02-28T04:12:47;21.00;;;13.90;;
27412;SDS011;14871;52.702;5.230;2024-02-28T04:15:13;22.27;;;13.82;;
27412;SDS011;14871;52.702;5.230;2024-02-28T04:17:39;21.13;;;13.98;;
27412;SDS011;14871;52.702;5.230;2024-02-28T04:20:09;25.10;;;14.88;;
27412;SDS011;14871;52.702;5.230;2024-02-28T04:22:35;20.73;;;14.32;;
27412;SDS011;14871;52.702;5.230;2024-02-28T04:25:01;20.85;;;14.55;;
27412;SDS011;14871;52.702;5.230;2024-02-28T04:27:27;22.92;;;14.27;;
27412;SDS011;14871;52.702;5.230;2024-02-28T04:29:53;19.95;;;13.82;;
27412;SDS011;14871;52.702;5.230;2024-02-28T04:32:18;20.40;;;13.40;;
27412;SDS011;14871;52.702;5.230;2024-02-28T04:34:44;28.45;;;14.95;;
27412;SDS011;14871;52.702;5.230;2024-02-28T04:37:09;18.13;;;13.57;;
27412;SDS011;14871;52.702;5.230;2024-02-28T04:39:36;28.63;;;15.10;;
27412;SDS011;14871;52.702;5.230;2024-02-28T04:42:01;23.05;;;14.82;;
27412;SDS011;14871;52.702;5.230;2024-02-28T04:44:27;23.70;;;13.52;;
27412;SDS011;14871;52.702;5.230;2024-02-28T04:46:53;18.88;;;13.95;;
27412;SDS011;14871;52.702;5.230;2024-02-28T04:49:18;23.65;;;15.02;;
27412;SDS011;14871;52.702;5.230;2024-02-28T04:51:44;23.20;;;15.32;;
27412;SDS011;14871;52.702;5.230;2024-02-28T04:54:09;23.17;;;15.65;;
27412;SDS011;14871;52.702;5.230;2024-02-28T04:56:41;25.20;;;15.13;;
27412;SDS011;14871;52.702;5.230;2024-02-28T04:59:07;23.92;;;15.85;;
27412;SDS011;14871;52.702;5.230;2024-02-28T05:01:34;24.23;;;16.25;;
27412;SDS011;14871;52.702;5.230;2024-02-28T05:04:00;23.40;;;14.82;;
27412;SDS011;14871;52.702;5.230;2024-02-28T05:06:27;24.52;;;16.48;;
27412;SDS011;14871;52.702;5.230;2024-02-28T05:08:53;23.13;;;15.48;;
27412;SDS011;14871;52.702;5.230;2024-02-28T05:11:18;23.10;;;15.52;;
27412;SDS011;14871;52.702;5.230;2024-02-28T05:13:44;23.60;;;16.75;;
27412;SDS011;14871;52.702;5.230;2024-02-28T05:16:13;26.65;;;16.77;;
27412;SDS011;14871;52.702;5.230;2024-02-28T05:18:39;28.63;;;17.67;;
27412;SDS011;14871;52.702;5.230;2024-02-28T05:21:05;27.33;;;17.30;;
27412;SDS011;14871;52.702;5.230;2024-02-28T05:23:30;25.30;;;17.02;;
27412;SDS011;14871;52.702;5.230;2024-02-28T05:25:56;26.40;;;18.10;;
27412;SDS011;14871;52.702;5.230;2024-02-28T05:28:22;35.22;;;22.15;;
27412;SDS011;14871;52.702;5.230;2024-02-28T05:30:48;29.23;;;17.10;;
27412;SDS011;14871;52.702;5.230;2024-02-28T05:33:14;31.70;;;17.52;;
27412;SDS011;14871;52.702;5.230;2024-02-28T05:35:40;27.10;;;17.83;;
27412;SDS011;14871;52.702;5.230;2024-02-28T05:38:06;36.60;;;20.17;;
27412;SDS011;14871;52.702;5.230;2024-02-28T05:40:31;40.53;;;22.08;;
27412;SDS011;14871;52.702;5.230;2024-02-28T05:42:57;31.25;;;18.60;;
27412;SDS011;14871;52.702;5.230;2024-02-28T05:45:23;27.67;;;18.48;;
27412;SDS011;14871;52.702;5.230;2024-02-28T05:47:48;30.80;;;20.23;;
27412;SDS011;14871;52.702;5.230;2024-02-28T05:50:14;30.40;;;17.05;;
27412;SDS011;14871;52.702;5.230;2024-02-28T05:52:43;29.92;;;19.77;;
27412;SDS011;14871;52.702;5.230;2024-02-28T05:55:09;30.25;;;18.55;;
27412;SDS011;14871;52.702;5.230;2024-02-28T05:57:34;24.58;;;18.17;;
27412;SDS011;14871;52.702;5.230;2024-02-28T06:00:02;30.55;;;20.30;;
27412;SDS011;14871;52.702;5.230;2024-02-28T06:02:35;29.73;;;20.27;;
27412;SDS011;14871;52.702;5.230;2024-02-28T06:05:02;29.90;;;19.73;;
27412;SDS011;14871;52.702;5.230;2024-02-28T06:07:28;35.60;;;21.10;;
27412;SDS011;14871;52.702;5.230;2024-02-28T06:09:53;31.45;;;19.50;;
27412;SDS011;14871;52.702;5.230;2024-02-28T06:12:19;31.88;;;19.77;;
27412;SDS011;14871;52.702;5.230;2024-02-28T06:14:44;33.00;;;18.85;;
27412;SDS011;14871;52.702;5.230;2024-02-28T06:17:10;32.22;;;21.42;;
27412;SDS011;14871;52.702;5.230;2024-02-28T06:19:36;30.45;;;21.75;;
27412;SDS011;14871;52.702;5.230;2024-02-28T06:22:01;29.88;;;20.42;;
27412;SDS011;14871;52.702;5.230;2024-02-28T06:24:27;34.45;;;22.30;;
27412;SDS011;14871;52.702;5.230;2024-02-28T06:26:52;35.03;;;22.50;;
27412;SDS011;14871;52.702;5.230;2024-02-28T06:29:18;32.63;;;22.95;;
27412;SDS011;14871;52.702;5.230;2024-02-28T06:31:49;36.30;;;22.10;;
27412;SDS011;14871;52.702;5.230;2024-02-28T06:34:15;31.65;;;21.95;;
27412;SDS011;14871;52.702;5.230;2024-02-28T06:36:41;34.40;;;21.90;;
27412;SDS011;14871;52.702;5.230;2024-02-28T06:39:07;33.40;;;22.77;;
27412;SDS011;14871;52.702;5.230;2024-02-28T06:41:32;34.90;;;23.15;;
27412;SDS011;14871;52.702;5.230;2024-02-28T06:43:58;31.25;;;20.83;;
27412;SDS011;14871;52.702;5.230;2024-02-28T06:46:24;32.10;;;21.45;;
27412;SDS011;14871;52.702;5.230;2024-02-28T06:48:50;32.05;;;22.17;;
27412;SDS011;14871;52.702;5.230;2024-02-28T06:51:16;36.40;;;22.98;;
27412;SDS011;14871;52.702;5.230;2024-02-28T06:53:42;39.05;;;23.90;;
27412;SDS011;14871;52.702;5.230;2024-02-28T06:56:08;36.05;;;24.17;;
27412;SDS011;14871;52.702;5.230;2024-02-28T06:58:34;37.92;;;24.38;;
27412;SDS011;14871;52.702;5.230;2024-02-28T07:00:59;40.70;;;26.15;;
27412;SDS011;14871;52.702;5.230;2024-02-28T07:03:25;37.97;;;25.25;;
27412;SDS011;14871;52.702;5.230;2024-02-28T07:05:51;38.28;;;25.33;;
27412;SDS011;14871;52.702;5.230;2024-02-28T07:08:18;40.50;;;23.98;;
27412;SDS011;14871;52.702;5.230;2024-02-28T07:10:43;39.25;;;26.00;;
27412;SDS011;14871;52.702;5.230;2024-02-28T07:13:12;44.63;;;26.67;;
27412;SDS011;14871;52.702;5.230;2024-02-28T07:15:38;48.10;;;27.25;;
27412;SDS011;14871;52.702;5.230;2024-02-28T07:18:06;46.97;;;26.70;;
27412;SDS011;14871;52.702;5.230;2024-02-28T07:20:32;40.42;;;25.52;;
27412;SDS011;14871;52.702;5.230;2024-02-28T07:22:58;50.50;;;29.08;;
27412;SDS011;14871;52.702;5.230;2024-02-28T07:25:24;42.30;;;27.50;;
27412;SDS011;14871;52.702;5.230;2024-02-28T07:27:50;38.28;;;26.00;;
27412;SDS011;14871;52.702;5.230;2024-02-28T07:30:15;40.42;;;26.83;;
27412;SDS011;14871;52.702;5.230;2024-02-28T07:32:41;42.45;;;27.35;;
27412;SDS011;14871;52.702;5.230;2024-02-28T07:35:07;42.13;;;26.35;;
27412;SDS011;14871;52.702;5.230;2024-02-28T07:37:33;44.03;;;27.85;;
27412;SDS011;14871;52.702;5.230;2024-02-28T07:39:58;45.83;;;27.60;;
27412;SDS011;14871;52.702;5.230;2024-02-28T07:42:24;47.17;;;28.45;;
27412;SDS011;14871;52.702;5.230;2024-02-28T07:44:50;56.85;;;31.00;;
27412;SDS011;14871;52.702;5.230;2024-02-28T07:47:19;47.13;;;28.63;;
27412;SDS011;14871;52.702;5.230;2024-02-28T07:49:44;47.55;;;28.23;;
27412;SDS011;14871;52.702;5.230;2024-02-28T07:52:10;46.90;;;29.05;;
27412;SDS011;14871;52.702;5.230;2024-02-28T07:54:36;51.08;;;30.05;;
27412;SDS011;14871;52.702;5.230;2024-02-28T07:57:02;50.17;;;28.98;;
27412;SDS011;14871;52.702;5.230;2024-02-28T07:59:28;44.67;;;28.60;;
27412;SDS011;14871;52.702;5.230;2024-02-28T08:01:54;43.63;;;26.98;;
27412;SDS011;14871;52.702;5.230;2024-02-28T08:04:20;41.50;;;24.23;;
27412;SDS011;14871;52.702;5.230;2024-02-28T08:06:46;44.78;;;27.50;;
27412;SDS011;14871;52.702;5.230;2024-02-28T08:09:11;43.42;;;27.02;;
27412;SDS011;14871;52.702;5.230;2024-02-28T08:11:37;41.28;;;25.63;;
27412;SDS011;14871;52.702;5.230;2024-02-28T08:14:03;40.58;;;24.58;;
27412;SDS011;14871;52.702;5.230;2024-02-28T08:16:28;41.47;;;23.67;;
27412;SDS011;14871;52.702;5.230;2024-02-28T08:18:54;37.85;;;23.83;;
27412;SDS011;14871;52.702;5.230;2024-02-28T08:21:20;37.53;;;24.58;;
27412;SDS011;14871;52.702;5.230;2024-02-28T08:23:45;40.83;;;23.75;;
27412;SDS011;14871;52.702;5.230;2024-02-28T08:26:12;37.80;;;24.05;;
27412;SDS011;14871;52.702;5.230;2024-02-28T08:28:38;41.80;;;24.35;;
27412;SDS011;14871;52.702;5.230;2024-02-28T08:31:04;49.17;;;24.80;;
27412;SDS011;14871;52.702;5.230;2024-02-28T08:33:29;41.47;;;24.67;;
27412;SDS011;14871;52.702;5.230;2024-02-28T08:35:55;42.03;;;24.90;;
27412;SDS011;14871;52.702;5.230;2024-02-28T08:38:20;43.45;;;26.55;;
27412;SDS011;14871;52.702;5.230;2024-02-28T08:40:46;40.88;;;22.20;;
27412;SDS011;14871;52.702;5.230;2024-02-28T08:43:12;41.00;;;25.88;;
27412;SDS011;14871;52.702;5.230;2024-02-28T08:45:37;44.90;;;26.52;;
27412;SDS011;14871;52.702;5.230;2024-02-28T08:48:03;48.25;;;26.73;;
27412;SDS011;14871;52.702;5.230;2024-02-28T08:50:29;45.38;;;26.38;;
27412;SDS011;14871;52.702;5.230;2024-02-28T08:52:54;36.50;;;23.85;;
27412;SDS011;14871;52.702;5.230;2024-02-28T08:55:20;48.15;;;27.73;;
27412;SDS011;14871;52.702;5.230;2024-02-28T08:57:47;49.95;;;27.58;;
27412;SDS011;14871;52.702;5.230;2024-02-28T09:00:13;47.85;;;27.75;;
27412;SDS011;14871;52.702;5.230;2024-02-28T09:02:40;43.72;;;27.13;;
27412;SDS011;14871;52.702;5.230;2024-02-28T09:05:06;47.85;;;28.15;;
27412;SDS011;14871;52.702;5.230;2024-02-28T09:07:32;49.72;;;27.27;;
27412;SDS011;14871;52.702;5.230;2024-02-28T09:10:00;49.70;;;29.15;;
27412;SDS011;14871;52.702;5.230;2024-02-28T09:12:32;45.72;;;27.92;;
27412;SDS011;14871;52.702;5.230;2024-02-28T09:14:58;49.22;;;28.20;;
27412;SDS011;14871;52.702;5.230;2024-02-28T09:17:24;47.05;;;28.63;;
27412;SDS011;14871;52.702;5.230;2024-02-28T09:19:50;45.88;;;29.58;;
27412;SDS011;14871;52.702;5.230;2024-02-28T09:22:17;48.13;;;29.40;;
27412;SDS011;14871;52.702;5.230;2024-02-28T09:24:43;52.67;;;30.38;;
27412;SDS011;14871;52.702;5.230;2024-02-28T09:27:09;48.33;;;28.50;;
27412;SDS011;14871;52.702;5.230;2024-02-28T09:29:34;48.95;;;28.55;;
27412;SDS011;14871;52.702;5.230;2024-02-28T09:32:00;42.75;;;27.10;;
27412;SDS011;14871;52.702;5.230;2024-02-28T09:34:26;37.97;;;24.15;;
27412;SDS011;14871;52.702;5.230;2024-02-28T09:36:51;49.85;;;27.55;;
27412;SDS011;14871;52.702;5.230;2024-02-28T09:39:17;42.50;;;25.75;;
27412;SDS011;14871;52.702;5.230;2024-02-28T09:41:43;45.92;;;27.30;;
27412;SDS011;14871;52.702;5.230;2024-02-28T09:44:09;40.35;;;26.73;;
27412;SDS011;14871;52.702;5.230;2024-02-28T09:46:36;44.97;;;27.55;;
27412;SDS011;14871;52.702;5.230;2024-02-28T09:49:05;45.25;;;28.92;;
27412;SDS011;14871;52.702;5.230;2024-02-28T09:51:33;43.95;;;28.98;;
27412;SDS011;14871;52.702;5.230;2024-02-28T09:54:03;43.97;;;26.77;;
27412;SDS011;14871;52.702;5.230;2024-02-28T09:56:30;41.78;;;28.08;;
27412;SDS011;14871;52.702;5.230;2024-02-28T09:58:58;36.22;;;23.45;;
27412;SDS011;14871;52.702;5.230;2024-02-28T10:01:25;47.53;;;27.50;;
27412;SDS011;14871;52.702;5.230;2024-02-28T10:03:52;42.95;;;28.75;;
27412;SDS011;14871;52.702;5.230;2024-02-28T10:06:19;40.20;;;27.90;;
27412;SDS011;14871;52.702;5.230;2024-02-28T10:08:45;37.63;;;26.52;;
27412;SDS011;14871;52.702;5.230;2024-02-28T10:11:17;37.97;;;27.35;;
27412;SDS011;14871;52.702;5.230;2024-02-28T10:13:45;42.95;;;26.05;;
27412;SDS011;14871;52.702;5.230;2024-02-28T10:16:10;39.50;;;26.45;;
27412;SDS011;14871;52.702;5.230;2024-02-28T10:18:36;44.97;;;27.88;;
27412;SDS011;14871;52.702;5.230;2024-02-28T10:21:02;38.63;;;27.52;;
27412;SDS011;14871;52.702;5.230;2024-02-28T10:23:29;35.00;;;25.63;;
27412;SDS011;14871;52.702;5.230;2024-02-28T10:25:55;35.55;;;25.52;;
27412;SDS011;14871;52.702;5.230;2024-02-28T10:28:21;40.58;;;25.90;;
27412;SDS011;14871;52.702;5.230;2024-02-28T10:30:46;36.47;;;25.52;;
27412;SDS011;14871;52.702;5.230;2024-02-28T10:33:12;45.58;;;26.10;;
27412;SDS011;14871;52.702;5.230;2024-02-28T10:35:39;43.97;;;26.45;;
27412;SDS011;14871;52.702;5.230;2024-02-28T10:38:07;37.85;;;25.25;;
27412;SDS011;14871;52.702;5.230;2024-02-28T10:40:36;39.20;;;26.33;;
27412;SDS011;14871;52.702;5.230;2024-02-28T10:43:03;48.25;;;28.35;;
27412;SDS011;14871;52.702;5.230;2024-02-28T10:45:33;41.85;;;27.88;;
27412;SDS011;14871;52.702;5.230;2024-02-28T10:48:00;41.45;;;27.95;;
27412;SDS011;14871;52.702;5.230;2024-02-28T10:50:28;41.88;;;27.55;;
27412;SDS011;14871;52.702;5.230;2024-02-28T10:52:54;47.47;;;27.52;;
27412;SDS011;14871;52.702;5.230;2024-02-28T10:55:25;41.90;;;26.92;;
27412;SDS011;14871;52.702;5.230;2024-02-28T10:57:58;40.58;;;24.60;;
27412;SDS011;14871;52.702;5.230;2024-02-28T11:00:29;48.05;;;26.92;;
27412;SDS011;14871;52.702;5.230;2024-02-28T11:02:56;39.55;;;26.70;;
27412;SDS011;14871;52.702;5.230;2024-02-28T11:05:24;39.10;;;25.83;;
27412;SDS011;14871;52.702;5.230;2024-02-28T11:08:05;38.92;;;26.90;;
27412;SDS011;14871;52.702;5.230;2024-02-28T11:10:34;33.97;;;25.13;;
27412;SDS011;14871;52.702;5.230;2024-02-28T11:13:00;33.22;;;23.55;;
27412;SDS011;14871;52.702;5.230;2024-02-28T11:15:25;34.60;;;25.80;;
27412;SDS011;14871;52.702;5.230;2024-02-28T11:17:54;34.35;;;24.40;;
27412;SDS011;14871;52.702;5.230;2024-02-28T11:20:31;36.15;;;24.55;;
27412;SDS011;14871;52.702;5.230;2024-02-28T11:22:57;34.58;;;25.25;;
27412;SDS011;14871;52.702;5.230;2024-02-28T11:25:24;41.03;;;23.73;;
27412;SDS011;14871;52.702;5.230;2024-02-28T11:27:50;28.77;;;23.20;;
27412;SDS011;14871;52.702;5.230;2024-02-28T11:30:15;38.00;;;24.45;;
27412;SDS011;14871;52.702;5.230;2024-02-28T11:32:42;34.10;;;23.83;;
27412;SDS011;14871;52.702;5.230;2024-02-28T11:35:08;32.40;;;22.60;;
27412;SDS011;14871;52.702;5.230;2024-02-28T11:37:37;36.92;;;22.83;;
27412;SDS011;14871;52.702;5.230;2024-02-28T11:40:06;33.08;;;22.92;;
27412;SDS011;14871;52.702;5.230;2024-02-28T11:42:33;33.35;;;22.25;;
27412;SDS011;14871;52.702;5.230;2024-02-28T11:45:00;34.35;;;23.38;;
27412;SDS011;14871;52.702;5.230;2024-02-28T11:47:28;31.77;;;24.10;;
27412;SDS011;14871;52.702;5.230;2024-02-28T11:49:57;39.25;;;23.88;;
27412;SDS011;14871;52.702;5.230;2024-02-28T11:52:25;33.13;;;23.17;;
27412;SDS011;14871;52.702;5.230;2024-02-28T11:54:50;37.67;;;25.67;;
27412;SDS011;14871;52.702;5.230;2024-02-28T11:57:16;36.97;;;25.00;;
27412;SDS011;14871;52.702;5.230;2024-02-28T11:59:43;38.72;;;25.33;;
27412;SDS011;14871;52.702;5.230;2024-02-28T12:02:13;40.85;;;24.73;;
27412;SDS011;14871;52.702;5.230;2024-02-28T12:04:40;36.60;;;24.48;;
27412;SDS011;14871;52.702;5.230;2024-02-28T12:07:08;34.80;;;24.95;;
27412;SDS011;14871;52.702;5.230;2024-02-28T12:09:34;36.30;;;25.63;;
27412;SDS011;14871;52.702;5.230;2024-02-28T12:12:02;34.17;;;23.30;;
27412;SDS011;14871;52.702;5.230;2024-02-28T12:14:32;40.72;;;26.33;;
27412;SDS011;14871;52.702;5.230;2024-02-28T12:17:01;31.98;;;21.98;;
27412;SDS011;14871;52.702;5.230;2024-02-28T12:19:28;30.83;;;22.52;;
27412;SDS011;14871;52.702;5.230;2024-02-28T12:21:54;30.45;;;22.83;;
27412;SDS011;14871;52.702;5.230;2024-02-28T12:24:20;32.88;;;23.92;;
27412;SDS011;14871;52.702;5.230;2024-02-28T12:26:46;29.23;;;21.70;;
27412;SDS011;14871;52.702;5.230;2024-02-28T12:29:12;27.58;;;20.85;;
27412;SDS011;14871;52.702;5.230;2024-02-28T12:31:38;28.25;;;21.98;;
27412;SDS011;14871;52.702;5.230;2024-02-28T12:34:04;32.60;;;22.20;;
27412;SDS011;14871;52.702;5.230;2024-02-28T12:36:30;27.13;;;23.00;;
27412;SDS011;14871;52.702;5.230;2024-02-28T12:38:57;28.30;;;21.27;;
27412;SDS011;14871;52.702;5.230;2024-02-28T12:41:24;27.65;;;22.13;;
27412;SDS011;14871;52.702;5.230;2024-02-28T12:43:51;27.27;;;21.92;;
27412;SDS011;14871;52.702;5.230;2024-02-28T12:46:17;31.10;;;20.35;;
27412;SDS011;14871;52.702;5.230;2024-02-28T12:48:43;29.75;;;22.10;;
27412;SDS011;14871;52.702;5.230;2024-02-28T12:51:20;31.95;;;24.08;;
27412;SDS011;14871;52.702;5.230;2024-02-28T12:54:00;33.78;;;24.98;;
27412;SDS011;14871;52.702;5.230;2024-02-28T12:56:26;32.25;;;22.60;;
27412;SDS011;14871;52.702;5.230;2024-02-28T12:58:52;32.58;;;24.33;;
27412;SDS011;14871;52.702;5.230;2024-02-28T13:01:18;29.77;;;22.75;;
27412;SDS011;14871;52.702;5.230;2024-02-28T13:03:44;31.02;;;24.20;;
27412;SDS011;14871;52.702;5.230;2024-02-28T13:06:09;32.03;;;22.90;;
27412;SDS011;14871;52.702;5.230;2024-02-28T13:08:35;33.08;;;23.23;;
27412;SDS011;14871;52.702;5.230;2024-02-28T13:11:00;26.95;;;21.83;;
27412;SDS011;14871;52.702;5.230;2024-02-28T13:13:26;27.42;;;21.35;;
27412;SDS011;14871;52.702;5.230;2024-02-28T13:15:52;30.63;;;22.25;;
27412;SDS011;14871;52.702;5.230;2024-02-28T13:18:18;30.27;;;23.13;;
27412;SDS011;14871;52.702;5.230;2024-02-28T13:20:44;28.38;;;21.50;;
27412;SDS011;14871;52.702;5.230;2024-02-28T13:23:09;29.77;;;21.02;;
27412;SDS011;14871;52.702;5.230;2024-02-28T13:25:35;31.00;;;21.20;;
27412;SDS011;14871;52.702;5.230;2024-02-28T13:28:01;28.15;;;19.70;;
27412;SDS011;14871;52.702;5.230;2024-02-28T13:30:29;23.95;;;18.65;;
27412;SDS011;14871;52.702;5.230;2024-02-28T13:32:55;22.73;;;19.27;;
27412;SDS011;14871;52.702;5.230;2024-02-28T13:35:20;23.50;;;20.00;;
27412;SDS011;14871;52.702;5.230;2024-02-28T13:37:46;25.63;;;19.63;;
27412;SDS011;14871;52.702;5.230;2024-02-28T13:40:12;24.48;;;19.33;;
27412;SDS011;14871;52.702;5.230;2024-02-28T13:42:38;26.98;;;19.17;;
27412;SDS011;14871;52.702;5.230;2024-02-28T13:45:04;23.63;;;19.63;;
27412;SDS011;14871;52.702;5.230;2024-02-28T13:47:33;24.33;;;20.98;;
27412;SDS011;14871;52.702;5.230;2024-02-28T13:50:00;30.85;;;23.10;;
27412;SDS011;14871;52.702;5.230;2024-02-28T13:52:26;28.38;;;22.65;;
27412;SDS011;14871;52.702;5.230;2024-02-28T13:54:52;30.25;;;22.58;;
27412;SDS011;14871;52.702;5.230;2024-02-28T13:57:17;31.55;;;24.25;;
27412;SDS011;14871;52.702;5.230;2024-02-28T13:59:43;29.73;;;24.52;;
27412;SDS011;14871;52.702;5.230;2024-02-28T14:02:14;31.05;;;23.73;;
27412;SDS011;14871;52.702;5.230;2024-02-28T14:04:40;34.17;;;24.48;;
27412;SDS011;14871;52.702;5.230;2024-02-28T14:07:08;32.08;;;23.92;;
27412;SDS011;14871;52.702;5.230;2024-02-28T14:09:34;29.65;;;24.08;;
27412;SDS011;14871;52.702;5.230;2024-02-28T14:11:59;28.27;;;22.48;;
27412;SDS011;14871;52.702;5.230;2024-02-28T14:14:25;31.45;;;23.17;;
27412;SDS011;14871;52.702;5.230;2024-02-28T14:16:52;25.10;;;21.08;;
27412;SDS011;14871;52.702;5.230;2024-02-28T14:19:18;31.95;;;23.48;;
27412;SDS011;14871;52.702;5.230;2024-02-28T14:21:43;27.60;;;19.50;;